createdAt,value
2019-06-27T00:01:05.656Z,102271.20
2019-06-27T00:05:29.321Z,102259.38
2019-06-27T00:09:53.024Z,102266.92
2019-06-27T00:14:16.766Z,102255.61
2019-06-27T00:18:40.466Z,102266.53
2019-06-27T00:23:05.535Z,102261.60
2019-06-27T00:27:29.538Z,102263.00
2019-06-27T00:31:53.221Z,102261.98
2019-06-27T00:36:16.913Z,102265.05
2019-06-27T00:40:40.580Z,102264.98
2019-06-27T00:45:05.202Z,102262.84
2019-06-27T00:49:28.864Z,102256.39
2019-06-27T00:53:52.553Z,102266.70
2019-06-27T00:58:16.221Z,102265.54
2019-06-27T01:02:39.907Z,102266.06
2019-06-27T01:07:03.596Z,102263.67
2019-06-27T01:11:27.512Z,102268.07
2019-06-27T01:15:51.192Z,102269.03
2019-06-27T01:20:16.905Z,102266.53
2019-06-27T01:24:40.580Z,102272.09
2019-06-27T01:29:05.276Z,102273.91
2019-06-27T01:33:28.962Z,102271.50
2019-06-27T01:37:52.632Z,102277.97
2019-06-27T01:42:17.343Z,102273.10
2019-06-27T01:46:41.255Z,102271.09
2019-06-27T01:51:04.927Z,102270.35
2019-06-27T01:55:28.625Z,102273.34
2019-06-27T01:59:52.284Z,102273.34
2019-06-27T02:04:15.956Z,102275.69
2019-06-27T02:08:39.637Z,102277.37
2019-06-27T02:13:03.379Z,102274.37
2019-06-27T02:17:27.057Z,102282.58
2019-06-27T02:21:50.981Z,102284.36
2019-06-27T02:26:14.798Z,102285.21
2019-06-27T02:30:40.426Z,102280.11
2019-06-27T02:35:05.000Z,102285.45
2019-06-27T02:39:28.955Z,102283.38
2019-06-27T02:43:52.611Z,102294.39
2019-06-27T02:52:46.036Z,102304.24
2019-06-27T02:57:09.957Z,102320.81
2019-06-27T03:01:33.622Z,102313.31
2019-06-27T03:05:57.390Z,102318.42
2019-06-27T03:10:21.257Z,102319.45
2019-06-27T03:14:44.934Z,102316.54
2019-06-27T03:19:12.420Z,102317.66
2019-06-27T03:23:36.111Z,102320.02
2019-06-27T03:27:59.786Z,102326.25
2019-06-27T03:32:23.469Z,102324.55
2019-06-27T03:36:47.208Z,102320.88
2019-06-27T03:41:11.855Z,102321.98
2019-06-27T03:45:35.526Z,102328.20
2019-06-27T03:50:00.535Z,102324.89
2019-06-27T03:54:24.204Z,102325.95
2019-06-27T03:58:47.886Z,102327.06
2019-06-27T04:03:11.643Z,102329.34
2019-06-27T04:07:35.327Z,102328.11
2019-06-27T04:11:59.246Z,102333.92
2019-06-27T04:16:23.316Z,102337.55
2019-06-27T04:20:46.994Z,102341.30
2019-06-27T04:25:19.332Z,102340.97
2019-06-27T04:29:43.255Z,102340.87
2019-06-27T04:34:07.023Z,102348.99
2019-06-27T04:38:30.708Z,102347.88
2019-06-27T04:42:54.551Z,102349.06
2019-06-27T04:47:18.225Z,102343.80
2019-06-27T04:51:44.346Z,102348.89
2019-06-27T04:56:09.010Z,102355.73
2019-06-27T05:00:32.816Z,102354.03
2019-06-27T05:04:56.486Z,102357.78
2019-06-27T05:09:20.163Z,102349.81
2019-06-27T05:13:43.816Z,102355.25
2019-06-27T05:18:07.497Z,102355.37
2019-06-27T05:22:31.169Z,102356.95
2019-06-27T05:26:55.097Z,102355.37
2019-06-27T05:31:18.810Z,102363.30
2019-06-27T05:35:42.491Z,102365.30
2019-06-27T05:40:06.317Z,102376.43
2019-06-27T05:44:30.001Z,102373.80
2019-06-27T05:48:53.916Z,102375.16
2019-06-27T05:53:17.583Z,102380.04
2019-06-27T05:57:41.263Z,102380.03
2019-06-27T06:02:05.044Z,102379.39
2019-06-27T06:06:28.773Z,102374.00
2019-06-27T06:10:52.606Z,102375.11
2019-06-27T06:15:16.419Z,102381.41
2019-06-27T06:19:41.065Z,102380.09
2019-06-27T06:24:04.977Z,102383.75
2019-06-27T06:28:28.650Z,102376.83
2019-06-27T06:32:52.334Z,102380.38
2019-06-27T06:37:16.001Z,102387.49
2019-06-27T06:41:39.697Z,102386.19
2019-06-27T06:46:03.379Z,102392.16
2019-06-27T06:50:27.067Z,102397.34
2019-06-27T06:54:50.747Z,102399.64
2019-06-27T06:59:14.431Z,102401.97
2019-06-27T07:03:38.097Z,102411.31
2019-06-27T07:08:01.782Z,102408.30
2019-06-27T07:12:25.574Z,102409.02
2019-06-27T07:16:49.209Z,102412.90
2019-06-27T07:21:13.125Z,102416.83
2019-06-27T07:25:36.790Z,102420.95
2019-06-27T07:30:00.457Z,102409.95
2019-06-27T07:34:24.133Z,102409.36
2019-06-27T07:38:47.814Z,102411.12
2019-06-27T07:43:11.498Z,102410.19
2019-06-27T07:47:35.412Z,102408.08
2019-06-27T07:51:59.590Z,102403.63
2019-06-27T07:56:23.262Z,102408.14
2019-06-27T08:00:46.933Z,102406.24
2019-06-27T08:05:12.573Z,102405.72
2019-06-27T08:09:36.246Z,102406.35
2019-06-27T08:13:59.930Z,102410.02
2019-06-27T08:18:23.612Z,102409.80
2019-06-27T08:22:47.296Z,102416.64
2019-06-27T08:27:12.701Z,102406.14
2019-06-27T08:31:50.578Z,102401.36
2019-06-27T08:36:01.851Z,102412.08
2019-06-27T08:44:54.796Z,102405.14
2019-06-27T08:49:18.450Z,102407.92
2019-06-27T08:53:42.132Z,102404.05
2019-06-27T08:58:05.854Z,102397.33
2019-06-27T09:02:30.526Z,102394.81
2019-06-27T09:06:54.217Z,102396.03
2019-06-27T09:11:19.035Z,102400.02
2019-06-27T09:15:43.006Z,102396.00
2019-06-27T09:20:07.817Z,102390.53
2019-06-27T09:24:31.576Z,102393.20
2019-06-27T09:28:55.252Z,102389.87
2019-06-27T09:33:18.931Z,102388.24
2019-06-27T09:37:42.968Z,102387.69
2019-06-27T09:42:06.653Z,102382.02
2019-06-27T09:46:30.365Z,102381.30
2019-06-27T09:50:54.102Z,102382.76
2019-06-27T09:55:18.326Z,102382.16
2019-06-27T09:59:42.084Z,102379.88
2019-06-27T10:04:05.768Z,102385.99
2019-06-27T10:08:29.445Z,102381.78
2019-06-27T10:12:53.262Z,102381.38
2019-06-27T10:17:16.931Z,102377.77
2019-06-27T10:21:40.839Z,102377.83
2019-06-27T10:26:04.928Z,102384.38
2019-06-27T10:30:28.788Z,102382.42
2019-06-27T10:34:53.442Z,102377.58
2019-06-27T10:39:17.221Z,102381.16
2019-06-27T10:43:41.255Z,102372.00
2019-06-27T10:48:04.921Z,102385.25
2019-06-27T10:52:28.592Z,102375.99
2019-06-27T10:56:52.257Z,102371.70
2019-06-27T11:01:16.017Z,102372.30
2019-06-27T11:05:40.086Z,102367.25
2019-06-27T11:10:09.064Z,102368.94
2019-06-27T11:14:32.763Z,102363.84
2019-06-27T11:18:56.470Z,102365.91
2019-06-27T11:23:20.220Z,102363.33
2019-06-27T11:27:43.910Z,102364.74
2019-06-27T11:32:07.673Z,102358.54
2019-06-27T11:36:31.356Z,102357.20
2019-06-27T11:40:55.113Z,102348.97
2019-06-27T11:45:19.118Z,102349.64
2019-06-27T11:49:42.799Z,102346.59
2019-06-27T11:54:06.468Z,102344.95
2019-06-27T11:58:30.213Z,102337.26
2019-06-27T12:02:55.172Z,102339.09
2019-06-27T12:07:18.844Z,102343.42
2019-06-27T12:11:42.899Z,102328.72
2019-06-27T12:16:07.897Z,102321.66
2019-06-27T12:20:31.594Z,102330.06
2019-06-27T12:24:55.357Z,102316.66
2019-06-27T12:29:19.033Z,102320.50
2019-06-27T12:33:42.708Z,102315.98
2019-06-27T12:38:06.424Z,102309.41
2019-06-27T12:42:32.738Z,102304.89
2019-06-27T12:46:55.811Z,102294.63
2019-06-27T12:51:19.614Z,102289.38
2019-06-27T12:55:43.301Z,102285.85
2019-06-27T13:00:09.000Z,102284.54
2019-06-27T13:04:32.937Z,102292.78
2019-06-27T13:08:56.614Z,102285.62
2019-06-27T13:13:20.438Z,102291.47
2019-06-27T13:17:44.456Z,102272.61
2019-06-27T13:22:08.352Z,102268.33
2019-06-27T13:26:36.447Z,102267.53
2019-06-27T13:31:00.126Z,102263.81
2019-06-27T13:35:24.006Z,102262.20
2019-06-27T13:39:47.767Z,102248.68
2019-06-27T13:44:11.448Z,102260.02
2019-06-27T13:48:35.126Z,102257.83
2019-06-27T13:52:58.835Z,102257.73
2019-06-27T13:57:22.801Z,102243.39
2019-06-27T14:01:46.497Z,102253.31
2019-06-27T14:06:10.197Z,102244.97
2019-06-27T14:10:33.929Z,102247.40
2019-06-27T14:14:59.980Z,102244.73
2019-06-27T14:19:23.611Z,102245.05
2019-06-27T14:23:47.286Z,102241.88
2019-06-27T14:28:11.052Z,102233.52
2019-06-27T14:32:34.833Z,102236.86
2019-06-27T14:36:58.541Z,102230.48
2019-06-27T14:41:22.228Z,102230.98
2019-06-27T14:45:45.906Z,102233.33
2019-06-27T14:50:10.467Z,102232.17
2019-06-27T14:54:34.163Z,102236.00
2019-06-27T14:58:57.911Z,102229.70
2019-06-27T15:03:21.573Z,102227.21
2019-06-27T15:07:45.307Z,102226.17
2019-06-27T15:12:08.980Z,102219.95
2019-06-27T15:16:32.766Z,102222.91
2019-06-27T15:20:56.811Z,102229.14
2019-06-27T15:25:22.048Z,102226.02
2019-06-27T15:29:45.888Z,102224.41
2019-06-27T15:34:10.601Z,102223.41
2019-06-27T15:38:34.275Z,102226.40
2019-06-27T15:42:57.946Z,102223.39
2019-06-27T15:47:21.692Z,102227.97
2019-06-27T15:51:45.372Z,102226.05
2019-06-27T15:56:09.057Z,102225.53
2019-06-27T16:00:32.763Z,102226.96
2019-06-27T16:04:56.437Z,102216.68
2019-06-27T16:09:20.183Z,102212.53
2019-06-27T16:13:44.348Z,102217.22
2019-06-27T16:18:08.248Z,102217.16
2019-06-27T16:22:32.020Z,102216.34
2019-06-27T16:26:57.136Z,102210.81
2019-06-27T16:31:20.874Z,102204.62
2019-06-27T16:35:44.799Z,102212.42
2019-06-27T16:40:09.428Z,102204.59
2019-06-27T16:44:34.592Z,102209.13
2019-06-27T16:48:58.269Z,102203.23
2019-06-27T16:53:21.965Z,102205.16
2019-06-27T16:57:45.661Z,102201.69
2019-06-27T17:02:09.442Z,102202.75
2019-06-27T17:06:42.238Z,102202.80
2019-06-27T17:10:58.974Z,102206.28
2019-06-27T17:15:22.921Z,102205.61
2019-06-27T17:19:46.624Z,102203.02
2019-06-27T17:24:10.284Z,102207.06
2019-06-27T17:28:35.427Z,102202.71
2019-06-27T17:32:59.125Z,102199.83
2019-06-27T17:37:22.986Z,102204.31
2019-06-27T17:41:46.674Z,102202.87
2019-06-27T17:46:10.727Z,102200.63
2019-06-27T17:50:34.423Z,102199.79
2019-06-27T17:54:58.102Z,102207.66
2019-06-27T17:59:21.794Z,102214.88
2019-06-27T18:03:45.467Z,102216.83
2019-06-27T18:08:09.164Z,102221.73
2019-06-27T18:12:32.853Z,102212.83
2019-06-27T18:16:56.622Z,102216.09
2019-06-27T18:21:20.306Z,102216.06
2019-06-27T18:25:45.004Z,102216.97
2019-06-27T18:30:09.354Z,102216.45
2019-06-27T18:34:33.730Z,102215.61
2019-06-27T18:38:57.426Z,102206.66
2019-06-27T18:43:21.097Z,102206.70
2019-06-27T18:47:45.890Z,102209.77
2019-06-27T18:52:09.916Z,102209.30
2019-06-27T18:56:33.960Z,102212.87
2019-06-27T19:00:57.722Z,102218.64
2019-06-27T19:05:22.856Z,102216.41
2019-06-27T19:09:46.616Z,102219.55
2019-06-27T19:14:11.252Z,102223.99
2019-06-27T19:18:44.591Z,102225.81
2019-06-27T19:23:25.669Z,102225.95
2019-06-27T19:27:49.354Z,102229.31
2019-06-27T19:32:13.048Z,102233.28
2019-06-27T19:36:36.790Z,102231.13
2019-06-27T19:41:00.468Z,102235.81
2019-06-27T19:45:25.464Z,102236.42
2019-06-27T19:49:49.138Z,102234.05
2019-06-27T19:54:12.818Z,102232.63
2019-06-27T19:58:36.571Z,102230.77
2019-06-27T20:03:02.439Z,102228.31
2019-06-27T20:07:26.069Z,102239.31
2019-06-27T20:11:50.054Z,102241.38
2019-06-27T20:16:13.741Z,102236.33
2019-06-27T20:20:37.433Z,102236.33
2019-06-27T20:25:01.350Z,102242.52
2019-06-27T20:29:25.202Z,102239.69
2019-06-27T20:33:48.928Z,102247.34
2019-06-27T20:38:12.679Z,102248.23
2019-06-27T20:42:36.372Z,102243.50
2019-06-27T20:47:00.070Z,102246.72
2019-06-27T20:51:23.876Z,102247.89
2019-06-27T20:55:47.702Z,102243.50
2019-06-27T21:00:11.792Z,102249.52
2019-06-27T21:04:35.466Z,102255.07
2019-06-27T21:08:59.150Z,102249.71
2019-06-27T21:13:22.908Z,102248.23
2019-06-27T21:17:46.940Z,102252.92
2019-06-27T21:22:10.698Z,102251.97
2019-06-27T21:26:34.643Z,102244.93
2019-06-27T21:30:58.309Z,102250.16
2019-06-27T21:35:22.011Z,102247.66
2019-06-27T21:39:45.687Z,102247.31
2019-06-27T21:44:10.586Z,102254.48
2019-06-27T21:48:34.263Z,102249.09
2019-06-27T21:52:58.226Z,102251.33
2019-06-27T21:57:22.442Z,102246.23
2019-06-27T22:01:46.301Z,102239.98
2019-06-27T22:06:10.285Z,102235.03
2019-06-27T22:10:34.118Z,102237.48
2019-06-27T22:14:57.878Z,102237.09
2019-06-27T22:19:21.547Z,102234.18
2019-06-27T22:23:45.226Z,102234.57
2019-06-27T22:28:08.972Z,102227.36
2019-06-27T22:32:33.618Z,102222.39
2019-06-27T22:37:04.141Z,102216.94
2019-06-27T22:41:45.583Z,102213.13
2019-06-27T22:46:27.317Z,102209.48
2019-06-27T22:51:10.769Z,102208.40
2019-06-27T22:55:35.750Z,102202.66
2019-06-27T22:59:59.440Z,102204.28
2019-06-27T23:04:23.358Z,102202.44
2019-06-27T23:08:47.308Z,102201.34
2019-06-27T23:13:11.005Z,102198.42
2019-06-27T23:17:35.016Z,102203.81
2019-06-27T23:21:58.717Z,102203.58
2019-06-27T23:26:22.473Z,102207.89
2019-06-27T23:30:47.151Z,102208.51
2019-06-27T23:35:11.085Z,102197.61
2019-06-27T23:39:34.779Z,102198.56
2019-06-27T23:43:58.486Z,102201.75
2019-06-27T23:48:22.176Z,102194.83
2019-06-27T23:52:45.878Z,102194.86
2019-06-27T23:57:09.818Z,102188.84
